Time;durP1;ratioP1;P1;durP2;ratioP2;P2;SDS_P1;SDS_P2;PMS_P1;PMS_P2;Temp;Humidity;BMP_temperature;BMP_pressure;BME280_temperature;BME280_humidity;BME280_pressure;Samples;Min_cycle;Max_cycle;Signal;HPM_P1;HPM_P2
2023/11/11 00:00:52;;;;;;;28.33;20.73;;;;;;;-146.25;100.00;52570.97;2113402;28;34208;-71
2023/11/11 00:01:55;;;;;;;28.20;20.48;;;;;;;-146.25;100.00;52542.56;2113664;28;20036;-71
2023/11/11 00:02:57;;;;;;;28.58;19.52;;;;;;;-146.25;100.00;52556.75;2114102;28;20801;-72
2023/11/11 00:03:59;;;;;;;27.58;19.55;;;;;;;-146.25;100.00;52544.59;2104227;28;33636;-71
2023/11/11 00:05:01;;;;;;;26.70;19.27;;;;;;;-146.25;100.00;52570.97;2105512;28;20885;-72
2023/11/11 00:06:04;;;;;;;32.70;20.85;;;;;;;-146.25;100.00;52554.75;2104980;28;33270;-71
2023/11/11 00:07:06;;;;;;;30.95;19.70;;;;;;;-146.25;100.00;52534.47;2113460;28;32877;-72
2023/11/11 00:08:08;;;;;;;27.27;20.15;;;;;;;-146.25;100.00;52542.56;2113319;28;35600;-70
2023/11/11 00:09:10;;;;;;;31.75;20.35;;;;;;;-146.25;100.00;52560.81;2113160;28;33153;-71
2023/11/11 00:10:13;;;;;;;28.60;19.60;;;;;;;-146.25;100.00;52542.56;2112768;28;37759;-71
2023/11/11 00:11:15;;;;;;;29.02;20.25;;;;;;;-146.25;100.00;52562.84;2113590;28;24156;-72
2023/11/11 00:12:22;;;;;;;31.02;20.67;;;;;;;-146.25;100.00;52514.19;2104253;28;25437;-71
2023/11/11 00:13:24;;;;;;;30.25;20.55;;;;;;;-146.25;100.00;52573.00;2097508;28;20049;-72
2023/11/11 00:14:26;;;;;;;29.02;21.30;;;;;;;-146.25;100.00;52583.13;2105386;28;27347;-71
2023/11/11 00:15:33;;;;;;;34.13;20.52;;;;;;;-146.25;100.00;52585.16;2113829;28;20032;-72
2023/11/11 00:16:35;;;;;;;31.75;20.85;;;;;;;-146.25;100.00;52544.59;2112841;27;20095;-71
2023/11/11 00:17:37;;;;;;;30.73;21.50;;;;;;;-146.25;100.00;52621.66;2113584;28;29960;-71
2023/11/11 00:18:39;;;;;;;30.90;21.92;;;;;;;-146.25;100.00;52526.34;2113068;28;29805;-71
2023/11/11 00:19:42;;;;;;;30.55;21.38;;;;;;;-146.25;100.00;52532.44;2113156;28;36275;-72
2023/11/11 00:20:48;;;;;;;29.10;20.70;;;;;;;-146.25;100.00;52558.78;2112520;28;37091;-71
2023/11/11 00:21:53;;;;;;;32.25;21.88;;;;;;;-146.25;100.00;52583.13;2104442;28;20902;-71
2023/11/11 00:22:55;;;;;;;32.08;21.92;;;;;;;-146.25;100.00;52526.34;2104239;28;35067;-72
2023/11/11 00:23:57;;;;;;;30.77;21.27;;;;;;;-146.25;100.00;52544.59;2104319;28;25104;-71
2023/11/11 00:24:58;;;;;;;32.90;21.17;;;;;;;-146.25;100.00;52560.81;2095319;28;33290;-71
2023/11/11 00:26:00;;;;;;;34.25;22.83;;;;;;;-146.25;100.00;52552.72;2104923;28;29529;-71
2023/11/11 00:27:02;;;;;;;32.63;22.40;;;;;;;-146.25;100.00;52601.38;2113507;28;20036;-71
2023/11/11 00:28:04;;;;;;;31.52;21.45;;;;;;;-146.25;100.00;52558.78;2113675;28;26642;-71
2023/11/11 00:29:07;;;;;;;32.05;21.10;;;;;;;-146.25;100.00;52540.53;2112839;28;28031;-71
2023/11/11 00:30:10;;;;;;;33.83;21.70;;;;;;;-146.25;100.00;52554.75;2095789;28;22725;-71
2023/11/11 00:31:12;;;;;;;28.63;20.58;;;;;;;-146.25;100.00;52554.75;2096463;28;26890;-72
2023/11/11 00:32:14;;;;;;;30.60;20.67;;;;;;;-146.25;100.00;52528.38;2112582;28;30244;-71
2023/11/11 00:33:19;;;;;;;29.00;20.67;;;;;;;-146.25;100.00;52558.78;2113542;28;20044;-71
2023/11/11 00:34:21;;;;;;;27.55;20.40;;;;;;;-146.25;100.00;52554.75;2112538;28;32959;-71
2023/11/11 00:35:23;;;;;;;30.58;20.70;;;;;;;-146.25;100.00;52558.78;2111882;28;29883;-71
2023/11/11 00:36:26;;;;;;;33.20;21.42;;;;;;;-146.25;100.00;52542.56;2104176;28;22188;-71
2023/11/11 00:37:28;;;;;;;29.13;20.60;;;;;;;-146.25;100.00;52528.38;2103877;28;29965;-71
2023/11/11 00:38:30;;;;;;;32.40;21.40;;;;;;;-146.25;100.00;52526.34;2105190;28;29262;-71
2023/11/11 00:39:33;;;;;;;32.92;22.60;;;;;;;-146.25;100.00;52570.97;2104981;28;20076;-71
2023/11/11 00:40:35;;;;;;;31.20;22.05;;;;;;;-146.25;100.00;52546.63;2095043;28;35859;-71
2023/11/11 00:41:38;;;;;;;33.45;22.40;;;;;;;-146.25;100.00;52560.81;2095233;28;23278;-70
2023/11/11 00:42:42;;;;;;;32.00;22.27;;;;;;;-146.25;100.00;52506.06;2112905;28;25511;-71
2023/11/11 00:43:46;;;;;;;36.20;23.38;;;;;;;-146.25;100.00;52540.53;2112163;28;25620;-71
2023/11/11 00:44:48;;;;;;;31.08;22.15;;;;;;;-146.25;100.00;52506.06;2103894;28;33015;-71
2023/11/11 00:45:55;;;;;;;31.65;22.42;;;;;;;-146.25;100.00;52542.56;2104063;28;20040;-71
2023/11/11 00:46:57;;;;;;;31.80;21.92;;;;;;;-146.25;100.00;52530.41;2104387;28;24155;-71
2023/11/11 00:48:00;;;;;;;35.53;22.67;;;;;;;-146.25;100.00;52566.91;2104029;28;29763;-71
2023/11/11 00:49:02;;;;;;;32.13;21.63;;;;;;;-146.25;100.00;52532.44;2103744;28;29211;-71
2023/11/11 00:50:09;;;;;;;31.65;21.90;;;;;;;-146.25;100.00;52554.75;2095231;28;24335;-71
2023/11/11 00:51:11;;;;;;;32.78;20.73;;;;;;;-146.25;100.00;52530.41;2112651;28;25775;-72
2023/11/11 00:52:12;;;;;;;37.45;21.83;;;;;;;-146.25;100.00;52526.34;2112535;28;21848;-71
2023/11/11 00:53:14;;;;;;;35.20;22.85;;;;;;;-146.25;100.00;52566.91;2103969;28;26900;-71
2023/11/11 00:54:16;;;;;;;33.95;21.92;;;;;;;-146.25;100.00;52552.72;2103624;28;32450;-71
2023/11/11 00:55:18;;;;;;;35.78;22.77;;;;;;;-146.25;100.00;52540.53;2113041;28;20129;-71
2023/11/11 00:56:20;;;;;;;35.70;22.58;;;;;;;-146.25;100.00;52534.47;2112049;28;34054;-72
2023/11/11 00:57:24;;;;;;;30.65;21.75;;;;;;;-146.25;100.00;52542.56;2104287;28;28349;-71
2023/11/11 00:58:26;;;;;;;34.78;23.90;;;;;;;-146.25;100.00;52583.13;2104179;28;20041;-71
2023/11/11 00:59:28;;;;;;;33.17;21.92;;;;;;;-146.25;100.00;52558.78;2103902;28;33971;-71
2023/11/11 01:00:30;;;;;;;32.97;22.42;;;;;;;-146.25;100.00;52560.81;2103561;28;24035;-71
2023/11/11 01:01:34;;;;;;;37.88;23.00;;;;;;;-146.25;100.00;52556.75;2104566;28;20825;-71
2023/11/11 01:02:36;;;;;;;35.42;23.83;;;;;;;-146.25;100.00;52552.72;2103650;28;28710;-71
2023/11/11 01:03:41;;;;;;;33.85;22.38;;;;;;;-146.25;100.00;52585.16;2104237;28;28151;-71
2023/11/11 01:04:43;;;;;;;36.58;22.50;;;;;;;-146.25;100.00;52562.84;2104106;28;20087;-71
2023/11/11 01:05:45;;;;;;;34.88;23.15;;;;;;;-146.25;100.00;52528.38;2104703;28;23006;-71
2023/11/11 01:06:47;;;;;;;33.65;21.85;;;;;;;-146.25;100.00;52548.66;2104827;28;20095;-71
2023/11/11 01:07:49;;;;;;;36.10;22.88;;;;;;;-146.25;100.00;52520.28;2105100;28;21702;-70
2023/11/11 01:08:51;;;;;;;36.67;22.50;;;;;;;-146.25;100.00;52534.47;2103463;28;33987;-71
2023/11/11 01:09:53;;;;;;;35.40;22.98;;;;;;;-146.25;100.00;52550.69;2095166;28;33188;-71
2023/11/11 01:10:59;;;;;;;41.90;23.88;;;;;;;-146.25;100.00;52583.13;2096138;28;20033;-71
2023/11/11 01:12:02;;;;;;;35.42;22.70;;;;;;;-146.25;100.00;52585.16;2105295;28;20143;-71
2023/11/11 01:13:04;;;;;;;33.75;22.92;;;;;;;-146.25;100.00;52568.94;2104865;28;20041;-71
2023/11/11 01:14:06;;;;;;;33.13;21.52;;;;;;;-146.25;100.00;52570.97;2105335;28;20994;-70
2023/11/11 01:15:09;;;;;;;35.22;22.45;;;;;;;-146.25;100.00;52504.03;2104546;28;22902;-71
2023/11/11 01:16:11;;;;;;;34.92;22.88;;;;;;;-146.25;100.00;52573.00;2105107;28;20037;-71
2023/11/11 01:17:18;;;;;;;34.92;22.52;;;;;;;-146.25;100.00;52524.31;2104143;28;20044;-71
2023/11/11 01:18:20;;;;;;;33.65;22.08;;;;;;;-146.25;100.00;52544.59;2104547;28;20041;-71
2023/11/11 01:19:22;;;;;;;38.35;23.35;;;;;;;-146.25;100.00;52562.84;2104009;28;20852;-71
2023/11/11 01:20:26;;;;;;;35.22;22.55;;;;;;;-146.25;100.00;52554.75;2095787;28;20085;-70
2023/11/11 01:21:29;;;;;;;34.08;22.67;;;;;;;-146.25;100.00;52558.78;2095528;28;21024;-71
2023/11/11 01:22:31;;;;;;;40.47;24.20;;;;;;;-146.25;100.00;52564.88;2095948;28;20029;-71
2023/11/11 01:23:33;;;;;;;35.00;23.73;;;;;;;-146.25;100.00;52566.91;2095539;28;20902;-71
2023/11/11 01:24:36;;;;;;;32.80;21.92;;;;;;;-146.25;100.00;52558.78;2096368;28;20980;-72
2023/11/11 01:25:42;;;;;;;35.75;22.95;;;;;;;-146.25;100.00;52542.56;2095453;28;20122;-71
2023/11/11 01:26:44;;;;;;;39.42;23.83;;;;;;;-146.25;100.00;52556.75;2096779;28;20037;-71
2023/11/11 01:27:46;;;;;;;35.92;23.85;;;;;;;-146.25;100.00;52516.22;2103674;28;20044;-71
2023/11/11 01:28:47;;;;;;;32.80;21.77;;;;;;;-146.25;100.00;52570.97;2105300;28;20048;-71
2023/11/11 01:29:50;;;;;;;37.15;23.13;;;;;;;-146.25;100.00;52556.75;2105860;28;20033;-71
2023/11/11 01:30:52;;;;;;;33.80;21.88;;;;;;;-146.25;100.00;52542.56;2105891;28;20190;-71
2023/11/11 01:31:56;;;;;;;34.97;22.77;;;;;;;-146.25;100.00;52526.34;2105126;28;20171;-71
2023/11/11 01:33:01;;;;;;;38.92;24.50;;;;;;;-146.25;100.00;52473.63;2106110;28;21163;-71
2023/11/11 01:34:04;;;;;;;35.42;23.23;;;;;;;-146.25;100.00;52570.97;2108660;28;20823;-71
2023/11/11 01:35:06;;;;;;;40.85;24.00;;;;;;;-146.25;100.00;52562.84;2114029;28;20419;-71
2023/11/11 01:36:08;;;;;;;34.03;22.63;;;;;;;-146.25;100.00;52562.84;2114020;28;29623;-69
2023/11/11 01:37:10;;;;;;;39.38;25.00;;;;;;;-146.25;100.00;52536.50;2105667;28;22065;-71
2023/11/11 01:38:13;;;;;;;37.63;23.25;;;;;;;-146.25;100.00;52570.97;2105569;28;20657;-71
2023/11/11 01:39:14;;;;;;;39.65;24.13;;;;;;;-146.25;100.00;52560.81;2114406;28;25100;-71
2023/11/11 01:40:20;;;;;;;36.60;22.10;;;;;;;-146.25;100.00;52524.31;2114063;28;20162;-71
2023/11/11 01:41:22;;;;;;;37.42;22.95;;;;;;;-146.25;100.00;52540.53;2113903;28;30821;-71
2023/11/11 01:42:24;;;;;;;38.00;24.80;;;;;;;-146.25;100.00;52526.34;2114058;28;26313;-71
2023/11/11 01:43:26;;;;;;;34.90;22.55;;;;;;;-146.25;100.00;52566.91;2113770;28;22376;-71
2023/11/11 01:44:31;;;;;;;37.85;23.30;;;;;;;-146.25;100.00;52548.66;2113597;28;25443;-71
2023/11/11 01:45:32;;;;;;;34.20;22.42;;;;;;;-146.25;100.00;52554.75;2104797;28;35354;-71
2023/11/11 01:46:34;;;;;;;40.05;24.15;;;;;;;-146.25;100.00;52518.25;2096645;28;26306;-71
2023/11/11 01:47:37;;;;;;;35.83;23.48;;;;;;;-146.25;100.00;52550.69;2097007;28;32088;-71
2023/11/11 01:48:42;;;;;;;38.75;22.75;;;;;;;-146.25;100.00;52522.28;2105903;28;20040;-71
2023/11/11 01:49:46;;;;;;;37.08;22.10;;;;;;;-146.25;100.00;52564.88;2104902;28;21103;-71
2023/11/11 01:50:49;;;;;;;37.47;23.48;;;;;;;-146.25;100.00;52550.69;2096987;28;24794;-71
2023/11/11 01:51:52;;;;;;;39.75;23.70;;;;;;;-146.25;100.00;52528.38;2088586;28;20424;-71
2023/11/11 01:52:54;;;;;;;38.38;24.02;;;;;;;-146.25;100.00;52554.75;2097191;28;31290;-71
2023/11/11 01:53:58;;;;;;;36.20;22.27;;;;;;;-146.25;100.00;52518.25;2114775;28;20036;-71
2023/11/11 01:55:01;;;;;;;39.70;23.08;;;;;;;-146.25;100.00;52520.28;2105012;28;34120;-71
2023/11/11 01:56:05;;;;;;;40.15;24.17;;;;;;;-146.25;100.00;52573.00;2096747;28;31916;-71
2023/11/11 01:57:07;;;;;;;38.63;24.23;;;;;;;-146.25;100.00;52581.09;2089536;28;20446;-71
2023/11/11 01:58:09;;;;;;;37.13;23.33;;;;;;;-146.25;100.00;52566.91;2105494;28;20828;-71
2023/11/11 01:59:12;;;;;;;35.15;21.95;;;;;;;-146.25;100.00;52554.75;2104941;28;20164;-69
2023/11/11 02:00:16;;;;;;;36.63;23.13;;;;;;;-146.25;100.00;52550.69;2096982;28;20076;-71
2023/11/11 02:01:18;;;;;;;40.63;24.45;;;;;;;-146.25;100.00;52573.00;2098233;28;20775;-71
2023/11/11 02:02:22;;;;;;;34.53;20.83;;;;;;;-146.25;100.00;52566.91;2114366;28;20236;-71
2023/11/11 02:03:26;;;;;;;39.45;23.08;;;;;;;-146.25;100.00;52542.56;2114100;28;29847;-71
2023/11/11 02:04:28;;;;;;;36.45;22.02;;;;;;;-146.25;100.00;52556.75;2114093;28;20359;-71
2023/11/11 02:05:34;;;;;;;42.80;23.92;;;;;;;-146.25;100.00;52550.69;2113525;28;20055;-71
2023/11/11 02:06:37;;;;;;;41.75;24.10;;;;;;;-146.25;100.00;52528.38;2114772;28;20144;-71
2023/11/11 02:07:40;;;;;;;40.25;23.85;;;;;;;-146.25;100.00;52534.47;2113676;28;24039;-71
2023/11/11 02:08:42;;;;;;;37.72;23.00;;;;;;;-146.25;100.00;52548.66;2113510;28;31251;-71
2023/11/11 02:09:44;;;;;;;38.08;24.13;;;;;;;-146.25;100.00;52518.25;2114131;28;27057;-71
2023/11/11 02:10:46;;;;;;;34.65;22.13;;;;;;;-146.25;100.00;52579.06;2114045;28;20028;-70
2023/11/11 02:11:51;;;;;;;42.13;24.70;;;;;;;-146.25;100.00;52556.75;2114104;28;20036;-71
2023/11/11 02:12:54;;;;;;;39.35;24.60;;;;;;;-146.25;100.00;52599.34;2115126;28;20256;-70
2023/11/11 02:13:59;;;;;;;35.78;22.83;;;;;;;-146.25;100.00;52570.97;2105474;28;20954;-71
2023/11/11 02:15:02;;;;;;;38.60;23.75;;;;;;;-146.25;100.00;52526.34;2105244;28;20044;-71
2023/11/11 02:16:09;;;;;;;41.80;24.58;;;;;;;-146.25;100.00;52526.34;2105280;28;20877;-71
2023/11/11 02:17:10;;;;;;;43.15;23.60;;;;;;;-146.25;100.00;52546.63;2106088;28;20125;-71
2023/11/11 02:18:12;;;;;;;44.58;24.95;;;;;;;-146.25;100.00;52542.56;2114237;28;23964;-71
2023/11/11 02:19:14;;;;;;;41.17;23.90;;;;;;;-146.25;100.00;52546.63;2114283;28;20884;-70
2023/11/11 02:20:16;;;;;;;42.88;24.40;;;;;;;-146.25;100.00;52526.34;2114122;28;20801;-72
2023/11/11 02:21:20;;;;;;;42.83;25.25;;;;;;;-146.25;100.00;52528.38;2105319;28;20083;-71
2023/11/11 02:22:22;;;;;;;40.25;23.40;;;;;;;-146.25;100.00;52546.63;2106034;28;20041;-71
2023/11/11 02:23:35;;;;;;;40.72;23.23;;;;;;;-146.25;100.00;52538.53;2114580;28;20047;-71
2023/11/11 02:24:40;;;;;;;43.15;24.15;;;;;;;-146.25;100.00;52546.63;2105145;28;30877;-71
2023/11/11 02:25:42;;;;;;;39.92;24.35;;;;;;;-146.25;100.00;52542.56;2097108;28;20052;-71
2023/11/11 02:26:44;;;;;;;40.03;22.95;;;;;;;-146.25;100.00;52583.13;2106019;28;27753;-72
2023/11/11 02:27:47;;;;;;;43.15;25.10;;;;;;;-146.25;100.00;52550.69;2096599;28;21284;-72
2023/11/11 02:28:51;;;;;;;42.08;22.90;;;;;;;-146.25;100.00;52534.47;2097015;28;35394;-71
2023/11/11 02:29:54;;;;;;;41.55;23.38;;;;;;;-146.25;100.00;52538.53;2114354;28;20769;-71
2023/11/11 02:30:56;;;;;;;37.15;22.75;;;;;;;-146.25;100.00;52552.72;2114773;28;20144;-71
2023/11/11 02:31:58;;;;;;;41.25;23.55;;;;;;;-146.25;100.00;52542.56;2114081;28;21662;-71
2023/11/11 02:33:00;;;;;;;42.97;24.85;;;;;;;-146.25;100.00;52575.00;2114676;28;20079;-69
2023/11/11 02:34:02;;;;;;;48.67;24.58;;;;;;;-146.25;100.00;52554.75;2104358;28;29259;-71
2023/11/11 02:35:05;;;;;;;40.75;23.05;;;;;;;-146.25;100.00;52477.69;2104776;28;30223;-71
2023/11/11 02:36:07;;;;;;;40.38;24.13;;;;;;;-146.25;100.00;52581.09;2104364;28;32569;-71
2023/11/11 02:37:08;;;;;;;44.67;23.60;;;;;;;-146.25;100.00;52570.97;2105665;28;25827;-71
2023/11/11 02:38:12;;;;;;;41.47;24.17;;;;;;;-146.25;100.00;52520.28;2104486;28;27117;-70
2023/11/11 02:39:14;;;;;;;42.38;24.00;;;;;;;-146.25;100.00;52550.69;2105390;28;23577;-71
2023/11/11 02:40:16;;;;;;;43.45;24.20;;;;;;;-146.25;100.00;52562.84;2096518;28;20045;-71
2023/11/11 02:41:20;;;;;;;42.13;23.42;;;;;;;-146.25;100.00;52554.75;2097110;28;26615;-71
2023/11/11 02:42:22;;;;;;;40.97;23.33;;;;;;;-146.25;100.00;52542.56;2113509;28;29052;-71
2023/11/11 02:43:25;;;;;;;38.50;24.02;;;;;;;-146.25;100.00;52544.59;2105342;28;23308;-71
2023/11/11 02:44:27;;;;;;;41.80;23.45;;;;;;;-146.25;100.00;52554.75;2105538;28;32044;-71
2023/11/11 02:45:29;;;;;;;39.58;22.92;;;;;;;-146.25;100.00;52558.78;2114629;28;20116;-71
2023/11/11 02:46:31;;;;;;;40.10;24.23;;;;;;;-146.25;100.00;52552.72;2112854;28;24031;-71
2023/11/11 02:47:35;;;;;;;35.38;22.73;;;;;;;-146.25;100.00;52573.00;2113963;28;20155;-71
2023/11/11 02:48:37;;;;;;;42.25;23.58;;;;;;;-146.25;100.00;52558.78;2113373;28;21517;-71
2023/11/11 02:49:40;;;;;;;37.88;21.63;;;;;;;-146.25;100.00;52548.66;2114102;28;30166;-71
2023/11/11 02:50:43;;;;;;;41.85;24.00;;;;;;;-146.25;100.00;52554.75;2113452;28;30079;-71
2023/11/11 02:51:45;;;;;;;40.28;22.85;;;;;;;-146.25;100.00;52552.72;2113950;28;20966;-71
2023/11/11 02:52:47;;;;;;;40.88;22.60;;;;;;;-146.25;100.00;52520.28;2112527;28;33845;-70
2023/11/11 02:53:48;;;;;;;41.10;23.30;;;;;;;-146.25;100.00;52562.84;2096601;28;30082;-71
2023/11/11 02:54:51;;;;;;;42.65;22.95;;;;;;;-146.25;100.00;52550.69;2096431;28;20115;-71
2023/11/11 02:55:52;;;;;;;47.35;24.02;;;;;;;-146.25;100.00;52546.63;2105375;28;24667;-72
2023/11/11 02:56:54;;;;;;;40.47;23.50;;;;;;;-146.25;100.00;52558.78;2113740;28;22673;-71
2023/11/11 02:57:56;;;;;;;44.67;23.27;;;;;;;-146.25;100.00;52542.56;2113312;28;20044;-71
2023/11/11 02:58:58;;;;;;;43.80;24.02;;;;;;;-146.25;100.00;52522.28;2113905;28;27376;-72
2023/11/11 03:00:01;;;;;;;41.72;23.00;;;;;;;-146.25;100.00;52524.31;2113686;28;27812;-71
2023/11/11 03:01:03;;;;;;;43.78;24.00;;;;;;;-146.25;100.00;52558.78;2113178;28;28041;-71
2023/11/11 03:02:05;;;;;;;42.35;24.23;;;;;;;-146.25;100.00;52554.75;2113998;28;31744;-71
2023/11/11 03:03:09;;;;;;;41.72;23.20;;;;;;;-146.25;100.00;52548.66;2104580;28;28273;-70
2023/11/11 03:04:12;;;;;;;43.38;23.45;;;;;;;-146.25;100.00;52566.91;2105208;28;25880;-71
2023/11/11 03:05:14;;;;;;;45.70;24.30;;;;;;;-146.25;100.00;52558.78;2104164;28;30889;-71
2023/11/11 03:06:17;;;;;;;43.15;22.83;;;;;;;-146.25;100.00;52573.00;2104993;28;24193;-71
2023/11/11 03:07:22;;;;;;;42.72;23.30;;;;;;;-146.25;100.00;52542.56;2105061;28;20908;-71
2023/11/11 03:08:23;;;;;;;39.97;23.55;;;;;;;-146.25;100.00;52540.53;2105420;28;33393;-71
2023/11/11 03:09:25;;;;;;;43.72;24.65;;;;;;;-146.25;100.00;52564.88;2113582;28;28088;-71
2023/11/11 03:10:27;;;;;;;42.22;22.55;;;;;;;-146.25;100.00;52534.47;2113631;28;28021;-71
2023/11/11 03:11:29;;;;;;;39.40;21.63;;;;;;;-146.25;100.00;52542.56;2113728;28;20160;-71
2023/11/11 03:12:32;;;;;;;43.85;22.88;;;;;;;-146.25;100.00;52579.06;2104813;28;20068;-71
2023/11/11 03:13:34;;;;;;;41.42;23.08;;;;;;;-146.25;100.00;52528.38;2105409;28;20380;-71
2023/11/11 03:14:37;;;;;;;42.88;23.48;;;;;;;-146.25;100.00;52566.91;2114314;28;20075;-71
2023/11/11 03:15:38;;;;;;;39.88;22.58;;;;;;;-146.25;100.00;52516.22;2114173;28;20043;-71
2023/11/11 03:16:40;;;;;;;40.03;23.20;;;;;;;-146.25;100.00;52564.88;2113858;28;20146;-71
2023/11/11 03:17:45;;;;;;;42.63;24.13;;;;;;;-146.25;100.00;52560.81;2114244;28;20031;-71
2023/11/11 03:18:50;;;;;;;44.92;23.85;;;;;;;-146.25;100.00;52534.47;2104427;28;31284;-70
2023/11/11 03:19:52;;;;;;;44.58;24.25;;;;;;;-146.25;100.00;52573.00;2104720;28;27852;-71
2023/11/11 03:20:55;;;;;;;45.45;23.20;;;;;;;-146.25;100.00;52538.53;2104277;28;20044;-71
2023/11/11 03:21:57;;;;;;;43.63;24.13;;;;;;;-146.25;100.00;52591.25;2095867;28;27168;-70
2023/11/11 03:23:03;;;;;;;45.90;24.13;;;;;;;-146.25;100.00;52577.03;2096255;28;26944;-71
2023/11/11 03:24:06;;;;;;;44.90;24.63;;;;;;;-146.25;100.00;52575.00;2112838;28;30000;-71
2023/11/11 03:25:11;;;;;;;44.92;22.83;;;;;;;-146.25;100.00;52550.69;2105195;28;26207;-71
2023/11/11 03:26:13;;;;;;;38.03;22.20;;;;;;;-146.25;100.00;52518.25;2104869;28;31365;-71
2023/11/11 03:27:15;;;;;;;44.95;24.00;;;;;;;-146.25;100.00;52528.38;2104991;28;20051;-71
2023/11/11 03:28:17;;;;;;;40.58;23.25;;;;;;;-146.25;100.00;52570.97;2104146;28;25865;-71
2023/11/11 03:29:19;;;;;;;40.85;22.25;;;;;;;-146.25;100.00;52556.75;2104500;28;28505;-71
2023/11/11 03:30:21;;;;;;;40.42;23.42;;;;;;;-146.25;100.00;52570.97;2105170;28;20872;-71
2023/11/11 03:31:23;;;;;;;41.70;22.73;;;;;;;-146.25;100.00;52550.69;2113671;28;33915;-71
2023/11/11 03:32:25;;;;;;;42.42;24.38;;;;;;;-146.25;100.00;52581.09;2113677;28;31549;-71
2023/11/11 03:33:27;;;;;;;40.97;22.67;;;;;;;-146.25;100.00;52589.22;2114104;28;20856;-71
2023/11/11 03:34:29;;;;;;;39.72;22.85;;;;;;;-146.25;100.00;52552.72;2113186;28;35553;-71
2023/11/11 03:35:31;;;;;;;40.13;22.58;;;;;;;-146.25;100.00;52524.31;2112507;28;28100;-71
2023/11/11 03:36:32;;;;;;;42.33;22.73;;;;;;;-146.25;100.00;52510.13;2113390;28;22000;-71
2023/11/11 03:37:34;;;;;;;45.20;24.02;;;;;;;-146.25;100.00;52570.97;2113672;28;31392;-71
2023/11/11 03:38:36;;;;;;;46.03;23.45;;;;;;;-146.25;100.00;52540.53;2113551;28;24717;-70
2023/11/11 03:39:39;;;;;;;40.38;22.77;;;;;;;-146.25;100.00;52524.31;2113473;28;28074;-71
2023/11/11 03:40:41;;;;;;;41.25;22.05;;;;;;;-146.25;100.00;52546.63;2113076;28;28893;-71
2023/11/11 03:41:42;;;;;;;41.30;22.48;;;;;;;-146.25;100.00;52502.03;2113591;28;20409;-71
2023/11/11 03:42:47;;;;;;;39.53;21.13;;;;;;;-146.25;100.00;52591.25;2104021;28;32782;-70
2023/11/11 03:43:51;;;;;;;42.85;22.67;;;;;;;-146.25;100.00;52554.75;2104333;28;35253;-71
2023/11/11 03:44:53;;;;;;;37.60;22.38;;;;;;;-146.25;100.00;52532.44;2112586;28;34037;-71
2023/11/11 03:45:55;;;;;;;37.78;20.83;;;;;;;-146.25;100.00;52564.88;2113196;28;29891;-71
2023/11/11 03:46:57;;;;;;;41.85;23.33;;;;;;;-146.25;100.00;52562.84;2113557;28;20098;-71
2023/11/11 03:47:59;;;;;;;43.75;22.75;;;;;;;-146.25;100.00;52562.84;2112853;28;26745;-71
2023/11/11 03:49:00;;;;;;;37.47;21.33;;;;;;;-146.25;100.00;52573.00;2113408;28;27747;-71
2023/11/11 03:50:02;;;;;;;38.88;21.13;;;;;;;-146.25;100.00;52536.50;2104588;28;20110;-71
2023/11/11 03:51:04;;;;;;;38.55;21.35;;;;;;;-146.25;100.00;52552.72;2104113;28;32430;-71
2023/11/11 03:52:09;;;;;;;38.92;20.88;;;;;;;-146.25;100.00;52562.84;2112995;28;29920;-71
2023/11/11 03:53:11;;;;;;;38.78;21.33;;;;;;;-146.25;100.00;52552.72;2113676;28;20040;-71
2023/11/11 03:54:12;;;;;;;36.88;22.02;;;;;;;-146.25;100.00;52562.84;2112935;28;25572;-71
2023/11/11 03:55:17;;;;;;;38.78;20.60;;;;;;;-146.25;100.00;52558.78;2113435;28;20040;-71
2023/11/11 03:56:20;;;;;;;37.08;19.40;;;;;;;-146.25;100.00;52544.59;2104353;28;20048;-71
2023/11/11 03:57:22;;;;;;;37.70;20.77;;;;;;;-146.25;100.00;52542.56;2104110;28;27480;-71
2023/11/11 03:58:24;;;;;;;40.10;21.77;;;;;;;-146.25;100.00;52556.75;2113059;28;23961;-72
2023/11/11 03:59:26;;;;;;;38.88;20.88;;;;;;;-146.25;100.00;52583.13;2103968;28;34341;-71
2023/11/11 04:00:29;;;;;;;35.55;20.42;;;;;;;-146.25;100.00;52568.94;2104947;28;20049;-71
2023/11/11 04:01:34;;;;;;;34.35;19.52;;;;;;;-146.25;100.00;52562.84;2104279;28;28427;-70
2023/11/11 04:02:36;;;;;;;31.77;19.17;;;;;;;-146.25;100.00;52538.53;2097074;28;20194;-71
2023/11/11 04:03:42;;;;;;;33.83;20.27;;;;;;;-146.25;100.00;52548.66;2105663;28;20031;-71
2023/11/11 04:04:45;;;;;;;34.83;19.85;;;;;;;-146.25;100.00;52556.75;2113723;28;23303;-70
2023/11/11 04:05:47;;;;;;;35.28;19.88;;;;;;;-146.25;100.00;52560.81;2104415;28;20873;-70
2023/11/11 04:06:49;;;;;;;33.50;19.42;;;;;;;-146.25;100.00;52564.88;2096305;28;20045;-71
2023/11/11 04:07:52;;;;;;;36.90;20.15;;;;;;;-146.25;100.00;52510.13;2104518;28;20052;-71
2023/11/11 04:08:55;;;;;;;36.85;19.40;;;;;;;-146.25;100.00;52530.41;2096599;28;20037;-71
2023/11/11 04:09:58;;;;;;;37.10;20.88;;;;;;;-146.25;100.00;52566.91;2095867;28;28172;-72
2023/11/11 04:11:06;;;;;;;34.75;18.63;;;;;;;-146.25;100.00;52562.84;2113527;28;20032;-71
2023/11/11 04:12:09;;;;;;;33.90;18.45;;;;;;;-146.25;100.00;52534.47;2104525;28;20045;-70
2023/11/11 04:13:12;;;;;;;33.85;17.75;;;;;;;-146.25;100.00;52528.38;2096098;28;21028;-71
2023/11/11 04:14:17;;;;;;;32.65;19.00;;;;;;;-146.25;100.00;52562.84;2104989;28;20037;-71
2023/11/11 04:15:21;;;;;;;34.45;19.30;;;;;;;-146.25;100.00;52558.78;2104591;28;20106;-71
2023/11/11 04:16:26;;;;;;;32.30;18.05;;;;;;;-146.25;100.00;52577.03;2105043;28;20110;-71
2023/11/11 04:17:28;;;;;;;35.70;18.00;;;;;;;-146.25;100.00;52522.28;2104633;28;20749;-71
2023/11/11 04:18:32;;;;;;;35.25;18.30;;;;;;;-146.25;100.00;52542.56;2104582;28;20167;-69
2023/11/11 04:19:37;;;;;;;29.08;17.55;;;;;;;-146.25;100.00;52593.25;2104431;28;22420;-72
2023/11/11 04:20:42;;;;;;;30.13;17.42;;;;;;;-146.25;100.00;52575.00;2104567;28;20037;-71
2023/11/11 04:21:50;;;;;;;27.05;16.13;;;;;;;-146.25;100.00;52560.81;2113972;28;20040;-71
2023/11/11 04:22:54;;;;;;;33.65;16.98;;;;;;;-146.25;100.00;52534.47;2103813;28;20051;-72
2023/11/11 04:23:55;;;;;;;30.95;16.75;;;;;;;-146.25;100.00;52566.91;2104682;28;28674;-70
2023/11/11 04:25:05;;;;;;;29.50;17.33;;;;;;;-146.25;100.00;52534.47;2103935;28;20036;-70
2023/11/11 04:26:07;;;;;;;29.35;15.63;;;;;;;-146.25;100.00;52550.69;2105481;28;29362;-71
2023/11/11 04:27:09;;;;;;;26.17;15.05;;;;;;;-146.25;100.00;52550.69;2113322;28;27596;-70
2023/11/11 04:28:11;;;;;;;28.60;16.48;;;;;;;-146.25;100.00;52542.56;2104232;28;20045;-70
2023/11/11 04:29:13;;;;;;;28.38;15.70;;;;;;;-146.25;100.00;52538.53;2104018;28;35727;-70
2023/11/11 04:30:16;;;;;;;23.98;14.07;;;;;;;-146.25;100.00;52566.91;2113130;28;34254;-70
2023/11/11 04:31:18;;;;;;;23.15;13.85;;;;;;;-146.25;100.00;52562.84;2112939;28;35836;-70
2023/11/11 04:32:23;;;;;;;25.15;13.68;;;;;;;-146.25;100.00;52530.41;2114398;28;20032;-70
2023/11/11 04:33:26;;;;;;;25.80;14.82;;;;;;;-146.25;100.00;52554.75;2113555;28;20961;-71
2023/11/11 04:34:29;;;;;;;26.85;13.80;;;;;;;-146.25;100.00;52562.84;2112915;28;38218;-70
2023/11/11 04:35:31;;;;;;;24.52;14.05;;;;;;;-146.25;100.00;52607.47;2112610;28;33693;-70
2023/11/11 04:36:35;;;;;;;23.95;13.82;;;;;;;-146.25;100.00;52564.88;2113911;28;20044;-71
2023/11/11 04:37:37;;;;;;;25.08;13.27;;;;;;;-146.25;100.00;52534.47;2112175;28;37351;-71
2023/11/11 04:38:39;;;;;;;28.75;13.13;;;;;;;-146.25;100.00;52562.84;2112583;28;36331;-70
2023/11/11 04:39:45;;;;;;;27.30;12.73;;;;;;;-146.25;100.00;52566.91;2112654;28;36850;-70